createdAt,value
2019-03-11T00:00:39.983Z,55.46
2019-03-11T00:01:39.956Z,55.98
2019-03-11T00:02:39.944Z,54.94
2019-03-11T00:03:39.932Z,55.18
2019-03-11T00:04:39.920Z,54.63
2019-03-11T00:05:40.013Z,55.66
2019-03-11T00:06:39.920Z,55.90
2019-03-11T00:07:39.888Z,56.10
2019-03-11T00:08:39.896Z,56.08
2019-03-11T00:09:39.896Z,55.38
2019-03-11T00:10:39.883Z,55.49
2019-03-11T00:11:39.840Z,55.38
2019-03-11T00:12:39.855Z,56.21
2019-03-11T00:13:39.818Z,56.21
2019-03-11T00:14:39.809Z,56.62
2019-03-11T00:15:39.804Z,56.31
2019-03-11T00:16:39.797Z,57.27
2019-03-11T00:17:39.778Z,58.00
2019-03-11T00:18:39.766Z,58.41
2019-03-11T00:19:39.751Z,57.37
2019-03-11T00:20:39.760Z,57.81
2019-03-11T00:21:39.753Z,58.83
2019-03-11T00:22:39.723Z,58.20
2019-03-11T00:23:39.707Z,58.83
2019-03-11T00:24:39.703Z,58.23
2019-03-11T00:25:39.692Z,58.33
2019-03-11T00:26:39.703Z,59.78
2019-03-11T00:27:39.679Z,59.58
2019-03-11T00:28:39.665Z,59.99
2019-03-11T00:29:39.656Z,59.68
2019-03-11T00:30:39.635Z,59.58
2019-03-11T00:31:39.619Z,59.78
2019-03-11T00:32:39.631Z,59.89
2019-03-11T00:33:39.594Z,60.82
2019-03-11T00:34:39.588Z,60.30
2019-03-11T00:35:39.602Z,60.51
2019-03-11T00:36:39.562Z,60.74
2019-03-11T00:37:39.578Z,61.26
2019-03-11T00:38:39.574Z,61.16
2019-03-11T00:39:39.544Z,61.13
2019-03-11T00:40:39.524Z,61.47
2019-03-11T00:41:39.504Z,61.78
2019-03-11T00:42:39.510Z,62.16
2019-03-11T00:43:39.502Z,61.88
2019-03-11T00:44:39.471Z,62.48
2019-03-11T00:45:39.464Z,62.30
2019-03-11T00:46:39.454Z,62.61
2019-03-11T00:47:39.460Z,63.13
2019-03-11T00:48:39.451Z,63.02
2019-03-11T00:49:39.428Z,62.71
2019-03-11T00:50:39.430Z,63.16
2019-03-11T00:51:39.405Z,63.13
2019-03-11T00:52:39.482Z,62.92
2019-03-11T00:53:39.386Z,64.51
2019-03-11T00:54:39.378Z,64.40
2019-03-11T00:55:39.385Z,64.58
2019-03-11T00:56:39.348Z,64.51
2019-03-11T00:57:39.330Z,63.78
2019-03-11T00:58:39.326Z,64.92
2019-03-11T00:59:39.357Z,65.13
2019-03-11T01:00:39.297Z,65.99
2019-03-11T01:01:39.291Z,66.09
2019-03-11T01:02:39.274Z,65.89
2019-03-11T01:03:39.262Z,65.78
2019-03-11T01:04:39.282Z,67.03
2019-03-11T01:05:39.275Z,67.44
2019-03-11T01:06:39.229Z,67.58
2019-03-11T01:07:39.226Z,67.16
2019-03-11T01:08:39.219Z,67.79
2019-03-11T01:09:39.195Z,67.79
2019-03-11T01:10:39.219Z,69.24
2019-03-11T01:11:39.212Z,68.96
2019-03-11T01:12:39.167Z,69.06
2019-03-11T01:13:39.155Z,68.99
2019-03-11T01:14:39.146Z,69.27
2019-03-11T01:15:39.133Z,69.37
2019-03-11T01:16:39.133Z,69.48
2019-03-11T01:17:39.129Z,69.58
2019-03-11T01:18:39.100Z,69.06
2019-03-11T01:19:39.125Z,69.89
2019-03-11T01:20:39.109Z,69.48
2019-03-11T01:21:39.079Z,69.58
2019-03-11T01:22:39.090Z,69.58
2019-03-11T01:23:39.041Z,69.06
2019-03-11T01:24:39.032Z,69.48
2019-03-11T01:25:39.024Z,70.00
2019-03-11T01:26:39.068Z,70.51
2019-03-11T01:27:39.025Z,70.10
2019-03-11T01:28:39.005Z,70.20
2019-03-11T01:29:38.996Z,70.51
2019-03-11T01:30:38.978Z,70.44
2019-03-11T01:31:38.968Z,71.59
2019-03-11T01:32:38.956Z,71.90
2019-03-11T01:33:38.958Z,72.31
2019-03-11T01:34:38.949Z,72.52
2019-03-11T01:35:38.915Z,72.73
2019-03-11T01:36:38.898Z,72.97
2019-03-11T01:37:38.902Z,73.04
2019-03-11T01:38:38.895Z,72.97
2019-03-11T01:39:38.906Z,73.49
2019-03-11T01:40:38.868Z,73.60
2019-03-11T01:41:38.855Z,73.60
2019-03-11T01:42:38.838Z,73.70
2019-03-11T01:43:38.856Z,74.11
2019-03-11T01:44:38.820Z,73.80
2019-03-11T01:45:38.837Z,73.80
2019-03-11T01:46:38.792Z,74.01
2019-03-11T01:47:38.794Z,74.74
2019-03-11T01:48:38.777Z,74.43
2019-03-11T01:49:38.769Z,73.91
2019-03-11T01:50:38.749Z,73.80
2019-03-11T01:51:38.744Z,73.49
2019-03-11T01:52:38.722Z,73.60
2019-03-11T01:53:38.718Z,73.07
2019-03-11T01:54:38.770Z,72.76
2019-03-11T01:55:38.688Z,72.86
2019-03-11T01:56:38.685Z,72.55
2019-03-11T01:57:38.673Z,71.51
2019-03-11T01:58:38.684Z,70.37
2019-03-11T01:59:38.647Z,69.64
2019-03-11T02:00:38.663Z,69.02
2019-03-11T02:01:38.636Z,69.96
2019-03-11T02:02:38.612Z,69.85
2019-03-11T02:03:38.618Z,68.91
2019-03-11T02:04:38.598Z,69.23
2019-03-11T02:05:38.605Z,67.67
2019-03-11T02:06:38.610Z,67.67
2019-03-11T02:07:38.585Z,67.12
2019-03-11T02:08:38.555Z,66.00
2019-03-11T02:09:38.562Z,66.11
2019-03-11T02:10:38.542Z,66.00
2019-03-11T02:11:38.521Z,65.90
2019-03-11T02:12:38.501Z,63.90
2019-03-11T02:13:38.497Z,63.69
2019-03-11T02:14:38.483Z,63.07
2019-03-11T02:15:38.470Z,62.96
2019-03-11T02:16:38.500Z,62.55
2019-03-11T02:17:38.517Z,62.83
2019-03-11T02:18:38.447Z,62.55
2019-03-11T02:19:38.436Z,63.17
2019-03-11T02:20:39.054Z,62.65
2019-03-11T02:21:38.402Z,62.55
2019-03-11T02:22:38.414Z,62.45
2019-03-11T02:23:38.396Z,62.24
2019-03-11T02:24:38.392Z,62.02
2019-03-11T02:25:38.369Z,62.45
2019-03-11T02:26:38.361Z,62.52
2019-03-11T02:27:38.376Z,62.76
2019-03-11T02:28:38.335Z,63.90
2019-03-11T02:29:38.332Z,63.28
2019-03-11T02:30:38.303Z,63.28
2019-03-11T02:31:38.298Z,63.17
2019-03-11T02:32:38.301Z,63.90
2019-03-11T02:33:38.274Z,64.00
2019-03-11T02:34:38.261Z,64.83
2019-03-11T02:35:38.267Z,64.86
2019-03-11T02:36:38.293Z,65.14
2019-03-11T02:37:38.241Z,65.77
2019-03-11T02:38:45.579Z,66.11
2019-03-11T02:39:38.223Z,66.74
2019-03-11T02:40:38.194Z,66.74
2019-03-11T02:41:38.271Z,67.88
2019-03-11T02:42:38.219Z,67.29
2019-03-11T02:43:38.186Z,68.01
2019-03-11T02:44:38.157Z,69.47
2019-03-11T02:45:38.174Z,69.15
2019-03-11T02:46:38.142Z,68.74
2019-03-11T02:47:38.126Z,69.68
2019-03-11T02:48:38.111Z,69.99
2019-03-11T02:49:38.109Z,70.02
2019-03-11T02:50:38.127Z,70.12
2019-03-11T02:51:38.087Z,70.75
2019-03-11T02:52:38.109Z,70.95
2019-03-11T02:53:38.062Z,70.54
2019-03-11T02:54:38.089Z,71.27
2019-03-11T02:55:38.033Z,71.30
2019-03-11T02:56:38.068Z,71.51
2019-03-11T02:57:38.020Z,71.41
2019-03-11T02:58:37.997Z,71.82
2019-03-11T02:59:38.008Z,71.82
2019-03-11T03:00:37.981Z,72.76
2019-03-11T03:01:37.964Z,72.86
2019-03-11T03:02:38.043Z,72.58
2019-03-11T03:03:37.946Z,72.48
2019-03-11T03:04:37.929Z,72.66
2019-03-11T03:05:37.950Z,73.10
2019-03-11T03:06:37.910Z,72.79
2019-03-11T03:07:37.899Z,72.58
2019-03-11T03:08:37.890Z,72.79
2019-03-11T03:09:37.880Z,72.69
2019-03-11T03:10:37.882Z,73.03
2019-03-11T03:11:37.861Z,72.30
2019-03-11T03:12:37.874Z,72.41
2019-03-11T03:13:37.845Z,72.27
2019-03-11T03:14:37.822Z,71.78
2019-03-11T03:15:37.816Z,71.89
2019-03-11T03:16:37.816Z,71.58
2019-03-11T03:17:37.793Z,71.78
2019-03-11T03:18:37.799Z,70.92
2019-03-11T03:19:37.772Z,70.53
2019-03-11T03:20:37.752Z,70.74
2019-03-11T03:21:37.748Z,69.18
2019-03-11T03:22:37.737Z,69.87
2019-03-11T03:23:37.720Z,69.77
2019-03-11T03:24:37.716Z,69.35
2019-03-11T03:25:37.713Z,68.63
2019-03-11T03:26:37.717Z,68.42
2019-03-11T03:27:37.741Z,67.66
2019-03-11T03:28:37.680Z,67.58
2019-03-11T03:29:37.702Z,67.38
2019-03-11T03:30:37.650Z,67.27
2019-03-11T03:31:37.654Z,67.38
2019-03-11T03:32:37.647Z,67.48
2019-03-11T03:33:37.626Z,67.07
2019-03-11T03:34:37.624Z,67.69
2019-03-11T03:35:37.591Z,68.10
2019-03-11T03:36:37.578Z,67.76
2019-03-11T03:37:37.585Z,67.55
2019-03-11T03:38:37.566Z,67.69
2019-03-11T03:39:37.569Z,67.69
2019-03-11T03:40:37.562Z,67.79
2019-03-11T03:41:37.526Z,67.66
2019-03-11T03:42:37.620Z,67.55
2019-03-11T03:43:37.505Z,67.58
2019-03-11T03:44:37.491Z,68.00
2019-03-11T03:45:37.475Z,67.76
2019-03-11T03:46:37.475Z,67.55
2019-03-11T03:47:37.460Z,67.07
2019-03-11T03:48:37.628Z,67.35
2019-03-11T03:49:37.434Z,67.58
2019-03-11T03:50:37.463Z,67.90
2019-03-11T03:51:37.410Z,67.79
2019-03-11T03:52:37.402Z,67.79
2019-03-11T03:53:37.414Z,67.69
2019-03-11T03:54:37.380Z,68.00
2019-03-11T03:55:37.411Z,67.38
2019-03-11T03:56:37.360Z,67.41
2019-03-11T03:57:37.349Z,67.90
2019-03-11T03:58:37.333Z,69.67
2019-03-11T03:59:37.347Z,69.18
2019-03-11T04:00:37.317Z,69.70
2019-03-11T04:01:37.305Z,69.18
2019-03-11T04:02:37.295Z,69.38
2019-03-11T04:03:37.301Z,69.28
2019-03-11T04:04:37.319Z,69.49
2019-03-11T04:05:37.289Z,70.64
2019-03-11T04:06:37.255Z,69.59
2019-03-11T04:07:37.259Z,70.22
2019-03-11T04:08:37.228Z,70.22
2019-03-11T04:09:37.210Z,70.67
2019-03-11T04:10:37.245Z,71.37
2019-03-11T04:11:37.195Z,70.74
2019-03-11T04:12:37.177Z,70.98
2019-03-11T04:13:37.167Z,70.98
2019-03-11T04:14:37.168Z,71.37
2019-03-11T04:15:37.143Z,71.19
2019-03-11T04:16:37.172Z,71.50
2019-03-11T04:17:37.122Z,71.99
2019-03-11T04:18:37.113Z,71.40
2019-03-11T04:19:37.097Z,71.71
2019-03-11T04:20:37.088Z,71.40
2019-03-11T04:21:37.096Z,71.50
2019-03-11T04:22:37.117Z,71.92
2019-03-11T04:23:37.061Z,71.92
2019-03-11T04:24:37.045Z,72.24
2019-03-11T04:25:37.037Z,72.86
2019-03-11T04:26:37.021Z,73.17
2019-03-11T04:27:37.030Z,72.86
2019-03-11T04:28:37.029Z,72.65
2019-03-11T04:29:36.998Z,72.86
2019-03-11T04:30:37.001Z,73.07
2019-03-11T04:31:36.985Z,73.17
2019-03-11T04:32:36.978Z,72.65
2019-03-11T04:33:36.944Z,72.65
2019-03-11T04:34:36.953Z,72.75
2019-03-11T04:35:36.922Z,72.96
2019-03-11T04:36:36.912Z,72.86
2019-03-11T04:37:36.904Z,73.07
2019-03-11T04:38:36.894Z,73.72
2019-03-11T04:39:36.917Z,73.38
2019-03-11T04:40:36.875Z,73.69
2019-03-11T04:41:36.884Z,73.90
2019-03-11T04:42:36.855Z,73.59
2019-03-11T04:43:36.857Z,73.80
2019-03-11T04:44:36.820Z,74.01
2019-03-11T04:45:36.817Z,73.93
2019-03-11T04:46:36.889Z,74.01
2019-03-11T04:47:36.787Z,74.01
2019-03-11T04:48:36.793Z,74.42
2019-03-11T04:49:36.785Z,74.21
2019-03-11T04:50:36.771Z,74.21
2019-03-11T04:51:36.749Z,74.01
2019-03-11T04:52:36.739Z,74.11
2019-03-11T04:53:36.732Z,73.80
2019-03-11T04:54:36.727Z,74.01
2019-03-11T04:55:36.710Z,73.80
2019-03-11T04:56:36.696Z,73.55
2019-03-11T04:57:36.678Z,73.55
2019-03-11T04:58:36.707Z,73.86
2019-03-11T04:59:36.673Z,74.18
2019-03-11T05:00:36.666Z,73.86
2019-03-11T05:01:36.634Z,74.18
2019-03-11T05:02:37.579Z,74.29
2019-03-11T05:03:36.610Z,74.07
2019-03-11T05:04:36.619Z,73.97
2019-03-11T05:05:36.658Z,74.39
2019-03-11T05:06:36.576Z,74.18
2019-03-11T05:07:36.577Z,74.49
2019-03-11T05:08:36.559Z,74.70
2019-03-11T05:09:36.551Z,74.49
2019-03-11T05:10:36.547Z,73.97
2019-03-11T05:11:36.541Z,73.97
2019-03-11T05:12:36.529Z,73.66
2019-03-11T05:13:36.520Z,73.76
2019-03-11T05:14:36.490Z,73.76
2019-03-11T05:15:36.534Z,73.94
2019-03-11T05:16:36.501Z,73.94
2019-03-11T05:17:36.457Z,73.94
2019-03-11T05:18:36.497Z,74.04
2019-03-11T05:19:36.451Z,73.94
2019-03-11T05:20:36.441Z,73.83
2019-03-11T05:21:36.445Z,74.11
2019-03-11T05:22:44.129Z,74.01
2019-03-11T05:23:36.398Z,74.56
2019-03-11T05:24:36.378Z,73.90
2019-03-11T05:25:36.372Z,73.49
2019-03-11T05:26:36.361Z,73.69
2019-03-11T05:27:36.358Z,73.90
2019-03-11T05:28:36.338Z,73.90
2019-03-11T05:29:36.327Z,74.18
2019-03-11T05:30:36.343Z,74.32
2019-03-11T05:31:36.302Z,74.29
2019-03-11T05:32:36.288Z,74.29
2019-03-11T05:33:36.296Z,74.70
2019-03-11T05:34:36.297Z,74.39
2019-03-11T05:35:36.256Z,74.80
2019-03-11T05:36:36.266Z,74.80
2019-03-11T05:37:36.238Z,75.64
2019-03-11T05:38:36.261Z,75.60
2019-03-11T05:39:36.233Z,75.09
2019-03-11T05:40:36.204Z,74.88
2019-03-11T05:41:37.104Z,74.46
2019-03-11T05:42:36.191Z,74.04
2019-03-11T05:43:36.175Z,73.70
2019-03-11T05:44:36.166Z,73.70
2019-03-11T05:45:36.176Z,72.76
2019-03-11T05:46:36.148Z,72.21
2019-03-11T05:47:36.139Z,71.90
2019-03-11T05:48:36.136Z,71.69
2019-03-11T05:49:36.144Z,71.24
2019-03-11T05:50:36.098Z,71.17
2019-03-11T05:51:36.088Z,71.17
2019-03-11T05:52:36.073Z,70.34
2019-03-11T05:53:36.068Z,70.41
2019-03-11T05:54:36.050Z,69.79
2019-03-11T05:55:36.045Z,69.79
2019-03-11T05:56:36.034Z,69.79
2019-03-11T05:57:36.021Z,69.89
2019-03-11T05:58:36.013Z,69.58
2019-03-11T05:59:36.010Z,69.68
2019-03-11T06:00:36.003Z,69.24
2019-03-11T06:01:35.973Z,69.13
2019-03-11T06:02:36.639Z,69.24
2019-03-11T06:03:35.964Z,68.72
2019-03-11T06:04:35.944Z,68.82
2019-03-11T06:05:35.940Z,69.34
2019-03-11T06:06:35.926Z,69.55
2019-03-11T06:07:35.927Z,68.51
2019-03-11T06:08:35.899Z,68.72
2019-03-11T06:09:35.896Z,69.34
2019-03-11T06:10:35.879Z,68.82
2019-03-11T06:11:35.872Z,68.72
2019-03-11T06:12:35.873Z,69.13
2019-03-11T06:13:36.381Z,69.37
2019-03-11T06:14:35.851Z,69.55
2019-03-11T06:15:35.830Z,69.24
2019-03-11T06:16:35.836Z,68.20
2019-03-11T06:17:35.927Z,69.13
2019-03-11T06:18:35.797Z,68.93
2019-03-11T06:19:35.775Z,69.03
2019-03-11T06:20:35.803Z,68.51
2019-03-11T06:21:35.759Z,67.89
2019-03-11T06:22:35.750Z,68.30
2019-03-11T06:23:35.736Z,67.89
2019-03-11T06:24:35.732Z,67.65
2019-03-11T06:25:35.716Z,67.44
2019-03-11T06:26:35.699Z,67.03
2019-03-11T06:27:35.713Z,67.24
2019-03-11T06:28:35.706Z,67.34
2019-03-11T06:29:35.723Z,66.93
2019-03-11T06:30:35.681Z,66.20
2019-03-11T06:31:35.642Z,65.86
2019-03-11T06:32:35.640Z,66.89
2019-03-11T06:33:35.641Z,65.86
2019-03-11T06:34:35.621Z,66.17
2019-03-11T06:35:35.634Z,65.75
2019-03-11T06:36:35.601Z,66.17
2019-03-11T06:37:35.576Z,65.65
2019-03-11T06:38:35.675Z,65.65
2019-03-11T06:39:35.556Z,66.17
2019-03-11T06:40:35.544Z,65.23
2019-03-11T06:41:35.547Z,64.40
2019-03-11T06:42:35.542Z,64.61
2019-03-11T06:43:35.614Z,64.61
2019-03-11T06:44:35.535Z,64.69
2019-03-11T06:45:35.492Z,64.79
2019-03-11T06:46:35.495Z,65.10
2019-03-11T06:47:35.562Z,64.48
2019-03-11T06:48:35.507Z,63.54
2019-03-11T06:49:35.486Z,63.85
2019-03-11T06:50:35.452Z,63.44
2019-03-11T06:51:35.439Z,64.27
2019-03-11T06:52:35.424Z,63.75
2019-03-11T06:53:35.391Z,64.89
2019-03-11T06:54:35.401Z,64.27
2019-03-11T06:55:35.401Z,63.85
2019-03-11T06:56:35.368Z,64.17
2019-03-11T06:57:35.362Z,63.96
2019-03-11T06:58:35.347Z,63.72
2019-03-11T07:00:34.536Z,63.51
2019-03-11T07:01:34.534Z,63.82
2019-03-11T07:02:34.506Z,63.82
2019-03-11T07:03:41.801Z,62.79
2019-03-11T07:04:34.496Z,61.96
2019-03-11T07:05:34.476Z,61.44
2019-03-11T07:06:34.499Z,61.65
2019-03-11T07:07:34.440Z,61.55
2019-03-11T07:08:34.446Z,61.55
2019-03-11T07:09:34.450Z,61.76
2019-03-11T07:10:34.415Z,62.58
2019-03-11T07:11:34.476Z,63.93
2019-03-11T07:12:34.441Z,64.58
2019-03-11T07:13:34.381Z,65.72
2019-03-11T07:14:34.459Z,66.68
2019-03-11T07:15:34.370Z,67.41
2019-03-11T07:16:34.339Z,68.03
2019-03-11T07:17:34.369Z,68.79
2019-03-11T07:18:34.321Z,69.45
2019-03-11T07:19:34.314Z,69.96
2019-03-11T07:20:34.313Z,70.69
2019-03-11T07:21:34.310Z,69.79
2019-03-11T07:22:34.311Z,70.10
2019-03-11T07:23:34.264Z,70.00
2019-03-11T07:24:35.250Z,69.37
2019-03-11T07:25:34.290Z,68.96
2019-03-11T07:26:34.230Z,68.57
2019-03-11T07:27:34.272Z,67.92
2019-03-11T07:28:34.263Z,67.61
2019-03-11T07:29:34.223Z,65.63
2019-03-11T07:30:34.234Z,64.49
2019-03-11T07:31:34.194Z,63.66
2019-03-11T07:32:34.211Z,61.90
2019-03-11T07:33:34.195Z,61.27
2019-03-11T07:34:34.141Z,61.17
2019-03-11T07:35:34.171Z,61.69
2019-03-11T07:36:34.120Z,61.69
2019-03-11T07:37:34.120Z,61.79
2019-03-11T07:38:34.096Z,62.10
2019-03-11T07:39:34.158Z,61.92
2019-03-11T07:40:34.081Z,61.82
2019-03-11T07:41:34.102Z,61.61
2019-03-11T07:42:34.053Z,62.02
2019-03-11T07:43:34.074Z,61.92
2019-03-11T07:44:34.078Z,62.02
2019-03-11T07:45:34.046Z,62.65
2019-03-11T07:46:34.073Z,62.13
2019-03-11T07:47:34.137Z,62.65
2019-03-11T07:48:33.989Z,63.07
2019-03-11T07:49:34.001Z,63.48
2019-03-11T07:50:33.965Z,63.17
2019-03-11T07:51:33.949Z,63.69
2019-03-11T07:52:33.957Z,63.82
2019-03-11T07:53:33.965Z,64.31
2019-03-11T07:54:36.131Z,64.94
2019-03-11T07:55:33.916Z,64.62
2019-03-11T07:56:33.914Z,64.31
2019-03-11T07:57:33.885Z,64.62
2019-03-11T07:58:33.872Z,64.31
2019-03-11T07:59:33.857Z,64.94
2019-03-11T08:00:33.897Z,65.04
2019-03-11T08:01:33.840Z,65.25
2019-03-11T08:02:33.832Z,64.83
2019-03-11T08:03:33.816Z,64.52
2019-03-11T08:04:33.819Z,65.45
2019-03-11T08:05:33.896Z,66.25
2019-03-11T08:06:33.782Z,65.42
2019-03-11T08:07:33.791Z,65.35
2019-03-11T08:08:33.845Z,64.90
2019-03-11T08:09:37.871Z,65.97
2019-03-11T08:10:33.754Z,64.90
2019-03-11T08:11:33.755Z,65.56
2019-03-11T08:12:33.718Z,64.83
2019-03-11T08:13:33.735Z,64.94
2019-03-11T08:14:33.733Z,65.56
2019-03-11T08:15:33.718Z,65.25
2019-03-11T08:16:33.786Z,64.73
2019-03-11T08:17:33.658Z,65.25
2019-03-11T08:18:35.205Z,65.97
2019-03-11T08:19:33.664Z,65.45
2019-03-11T08:20:33.623Z,65.56
2019-03-11T08:21:33.650Z,65.77
2019-03-11T08:22:33.606Z,66.08
2019-03-11T08:23:35.715Z,65.87
2019-03-11T08:24:33.671Z,65.84
2019-03-11T08:25:33.610Z,67.02
2019-03-11T08:26:33.589Z,65.77
2019-03-11T08:27:33.566Z,66.91
2019-03-11T08:28:33.593Z,67.02
2019-03-11T08:29:33.521Z,67.54
2019-03-11T08:30:33.538Z,67.54
2019-03-11T08:31:33.537Z,67.33
2019-03-11T08:32:33.550Z,67.33
2019-03-11T08:33:33.487Z,67.74
2019-03-11T08:34:33.533Z,68.78
2019-03-11T08:35:33.498Z,68.47
2019-03-11T08:36:33.462Z,69.51
2019-03-11T08:37:33.455Z,68.16
2019-03-11T08:38:33.493Z,68.47
2019-03-11T08:39:33.464Z,68.60
2019-03-11T08:40:33.446Z,69.12
2019-03-11T08:41:33.407Z,68.60
2019-03-11T08:42:33.438Z,69.61
2019-03-11T08:43:33.383Z,69.71
2019-03-11T08:44:33.382Z,69.61
2019-03-11T08:45:33.370Z,70.13
2019-03-11T08:46:33.392Z,69.61
2019-03-11T08:47:33.366Z,69.92
2019-03-11T08:48:33.365Z,69.71
2019-03-11T08:49:33.328Z,70.03
2019-03-11T08:50:33.296Z,70.65
2019-03-11T08:51:33.292Z,70.54
2019-03-11T08:52:33.320Z,70.44
2019-03-11T08:53:33.338Z,70.54
2019-03-11T08:54:33.299Z,71.17
2019-03-11T08:55:33.272Z,71.28
2019-03-11T08:56:33.244Z,71.72
2019-03-11T08:57:33.222Z,71.20
2019-03-11T08:58:33.238Z,71.10
2019-03-11T08:59:40.305Z,71.69
2019-03-11T09:00:33.190Z,72.11
2019-03-11T09:01:33.201Z,72.14
2019-03-11T09:02:33.161Z,71.83
2019-03-11T09:03:33.144Z,72.76
2019-03-11T09:04:33.184Z,72.80
2019-03-11T09:05:33.132Z,74.91
2019-03-11T09:06:33.115Z,77.69
2019-03-11T09:07:33.104Z,80.85
2019-03-11T09:08:33.200Z,83.11
2019-03-11T09:09:33.102Z,85.86
2019-03-11T09:10:33.098Z,86.53
2019-03-11T09:11:33.062Z,87.82
2019-03-11T09:12:33.049Z,89.64
2019-03-11T09:13:33.045Z,90.72
2019-03-11T09:14:33.053Z,91.91
2019-03-11T09:15:33.010Z,92.16
2019-03-11T09:16:33.013Z,94.05
2019-03-11T09:17:33.006Z,94.30
2019-03-11T09:18:33.024Z,95.35
2019-03-11T09:19:34.190Z,96.29
2019-03-11T09:20:32.966Z,96.02
2019-03-11T09:21:32.947Z,96.23
2019-03-11T09:22:32.944Z,96.12
2019-03-11T09:23:32.959Z,96.55
2019-03-11T09:24:32.935Z,96.86
2019-03-11T09:25:33.653Z,96.86
2019-03-11T09:26:32.910Z,96.96
2019-03-11T09:27:32.877Z,97.28
2019-03-11T09:28:33.046Z,97.17
2019-03-11T09:29:32.865Z,96.90
2019-03-11T09:30:32.842Z,97.85
2019-03-11T09:31:32.839Z,97.69
2019-03-11T09:32:32.844Z,97.80
2019-03-11T09:33:32.815Z,97.38
2019-03-11T09:34:32.839Z,97.91
2019-03-11T09:35:32.792Z,97.65
2019-03-11T09:36:32.815Z,97.75
2019-03-11T09:37:32.772Z,96.75
2019-03-11T09:38:32.795Z,97.17
2019-03-11T09:39:32.804Z,97.02
2019-03-11T09:40:32.743Z,96.19
2019-03-11T09:41:32.740Z,96.33
2019-03-11T09:42:32.721Z,96.44
2019-03-11T09:43:32.746Z,96.50
2019-03-11T09:44:32.712Z,96.39
2019-03-11T09:45:32.730Z,96.19
2019-03-11T09:46:32.711Z,96.50
2019-03-11T09:47:32.674Z,96.29
2019-03-11T09:48:32.661Z,95.93
2019-03-11T09:49:32.702Z,95.72
2019-03-11T09:50:32.657Z,95.51
2019-03-11T09:51:32.632Z,95.62
2019-03-11T09:52:32.633Z,94.57
2019-03-11T09:53:32.600Z,95.83
2019-03-11T09:54:32.600Z,95.47
2019-03-11T09:55:39.618Z,94.53
2019-03-11T09:56:42.698Z,93.38
2019-03-11T09:57:33.562Z,93.23
2019-03-11T09:58:32.546Z,93.90
2019-03-11T09:59:32.568Z,92.02
2019-03-11T10:00:32.514Z,92.44
2019-03-11T10:01:32.597Z,91.91
2019-03-11T10:02:32.531Z,91.14
2019-03-11T10:03:32.514Z,91.87
2019-03-11T10:04:32.471Z,90.93
2019-03-11T10:05:32.479Z,90.52
2019-03-11T10:06:32.509Z,89.15
2019-03-11T10:07:32.447Z,88.39
2019-03-11T10:08:32.453Z,87.86
2019-03-11T10:09:32.411Z,86.67
2019-03-11T10:10:32.463Z,86.51
2019-03-11T10:11:32.416Z,86.19
2019-03-11T10:12:32.378Z,85.83
2019-03-11T10:13:32.373Z,85.21
2019-03-11T10:14:32.376Z,84.69
2019-03-11T10:15:32.345Z,84.96
2019-03-11T10:16:32.357Z,84.02
2019-03-11T10:17:32.357Z,83.50
2019-03-11T10:18:32.310Z,82.77
2019-03-11T10:19:32.327Z,82.63
2019-03-11T10:20:32.292Z,83.15
2019-03-11T10:21:32.320Z,83.25
2019-03-11T10:22:32.292Z,82.17
2019-03-11T10:23:39.376Z,82.90
2019-03-11T10:24:32.244Z,80.61
2019-03-11T10:25:32.245Z,80.61
2019-03-11T10:26:32.230Z,78.83
2019-03-11T10:27:32.251Z,79.98
2019-03-11T10:28:32.202Z,80.61
2019-03-11T10:29:32.220Z,79.67
2019-03-11T10:30:32.187Z,80.99
2019-03-11T10:31:32.173Z,80.57
2019-03-11T10:32:32.173Z,80.68
2019-03-11T10:33:32.154Z,80.88
2019-03-11T10:34:32.289Z,79.32
2019-03-11T10:35:32.920Z,79.32
2019-03-11T10:36:32.147Z,77.10
2019-03-11T10:37:32.107Z,79.28
2019-03-11T10:38:32.094Z,80.02
2019-03-11T10:39:32.117Z,81.54
2019-03-11T10:40:32.084Z,79.14
2019-03-11T10:41:32.160Z,78.94
2019-03-11T10:42:32.046Z,79.77
2019-03-11T10:43:32.038Z,79.21
2019-03-11T10:44:32.031Z,79.11
2019-03-11T10:45:32.462Z,79.21
2019-03-11T10:46:32.010Z,78.80
2019-03-11T10:47:31.995Z,79.07
2019-03-11T10:48:37.145Z,78.24
2019-03-11T10:49:32.995Z,78.14
2019-03-11T10:50:31.966Z,78.03
2019-03-11T10:51:31.949Z,77.83
2019-03-11T10:52:31.946Z,76.47
2019-03-11T10:53:31.935Z,76.68
2019-03-11T10:54:31.914Z,76.37
2019-03-11T10:55:31.961Z,76.26
2019-03-11T10:56:31.892Z,76.26
2019-03-11T10:57:31.885Z,76.99
2019-03-11T10:58:31.870Z,77.61
2019-03-11T10:59:31.861Z,77.20
2019-03-11T11:00:31.884Z,76.99
2019-03-11T11:01:31.841Z,77.51
2019-03-11T11:02:31.826Z,76.16
2019-03-11T11:03:31.817Z,76.16
2019-03-11T11:04:31.800Z,75.60
2019-03-11T11:05:31.806Z,75.50
2019-03-11T11:06:31.787Z,77.27
2019-03-11T11:07:31.819Z,75.46
2019-03-11T11:08:31.757Z,76.72
2019-03-11T11:09:31.762Z,77.30
2019-03-11T11:10:31.770Z,77.40
2019-03-11T11:11:31.727Z,77.16
2019-03-11T11:12:31.718Z,75.36
2019-03-11T11:13:31.703Z,74.22
2019-03-11T11:14:31.691Z,73.05
2019-03-11T11:15:31.724Z,73.98
2019-03-11T11:16:31.693Z,72.53
2019-03-11T11:17:31.659Z,72.84
2019-03-11T11:18:31.667Z,72.53
2019-03-11T11:19:31.647Z,72.08
2019-03-11T11:20:31.649Z,69.10
2019-03-11T11:21:31.612Z,70.17
2019-03-11T11:22:31.628Z,71.62
2019-03-11T11:23:31.599Z,71.49
2019-03-11T11:24:31.577Z,72.74
2019-03-11T11:25:31.579Z,72.84
2019-03-11T11:26:31.635Z,72.94
2019-03-11T11:27:31.545Z,74.50
2019-03-11T11:28:31.557Z,72.32
2019-03-11T11:29:31.546Z,72.22
2019-03-11T11:30:31.534Z,72.45
2019-03-11T11:31:31.510Z,72.63
2019-03-11T11:32:31.506Z,74.11
2019-03-11T11:33:31.526Z,76.19
2019-03-11T11:34:31.477Z,77.12
2019-03-11T11:35:31.476Z,77.33
2019-03-11T11:36:31.448Z,78.89
2019-03-11T11:37:32.355Z,77.44
2019-03-11T11:38:31.436Z,77.02
2019-03-11T11:39:31.415Z,76.81
2019-03-11T11:40:31.436Z,77.02
2019-03-11T11:41:31.394Z,78.06
2019-03-11T11:42:31.400Z,77.02
2019-03-11T11:43:31.380Z,75.36
2019-03-11T11:44:31.377Z,73.94
2019-03-11T11:45:31.364Z,74.22
2019-03-11T11:46:31.348Z,73.49
2019-03-11T11:47:31.327Z,71.83
2019-03-11T11:48:31.335Z,72.66
2019-03-11T11:49:31.340Z,71.28
2019-03-11T11:50:31.307Z,72.22
2019-03-11T11:51:31.286Z,71.91
2019-03-11T11:52:31.264Z,71.28
2019-03-11T11:53:31.284Z,72.70
2019-03-11T11:54:31.241Z,71.45
2019-03-11T11:55:31.264Z,71.45
2019-03-11T11:56:31.246Z,71.66
2019-03-11T11:57:31.211Z,69.59
2019-03-11T11:58:31.211Z,68.34
2019-03-11T11:59:31.217Z,69.38
2019-03-11T12:00:31.199Z,67.20
2019-03-11T12:01:31.167Z,68.86
2019-03-11T12:02:31.152Z,68.00
2019-03-11T12:03:31.152Z,66.24
2019-03-11T12:04:31.163Z,65.41
2019-03-11T12:05:31.142Z,65.72
2019-03-11T12:06:31.123Z,65.28
2019-03-11T12:07:31.140Z,65.80
2019-03-11T12:08:31.127Z,62.99
2019-03-11T12:09:31.076Z,61.93
2019-03-11T12:10:31.135Z,62.66
2019-03-11T12:11:31.054Z,62.87
2019-03-11T12:12:31.045Z,63.15
2019-03-11T12:13:31.033Z,63.97
2019-03-11T12:14:31.077Z,63.66
2019-03-11T12:15:31.012Z,61.77
2019-03-11T12:16:31.001Z,61.77
2019-03-11T12:17:31.047Z,61.57
2019-03-11T12:18:31.043Z,61.57
2019-03-11T12:19:30.961Z,61.25
2019-03-11T12:20:30.980Z,60.84
2019-03-11T12:21:30.942Z,57.81
2019-03-11T12:22:30.929Z,55.64
2019-03-11T12:23:30.945Z,53.36
2019-03-11T12:24:30.916Z,52.87
2019-03-11T12:25:30.893Z,52.67
2019-03-11T12:26:30.888Z,53.28
2019-03-11T12:27:30.871Z,53.18
2019-03-11T12:28:30.888Z,52.67
2019-03-11T12:29:30.854Z,52.56
2019-03-11T12:30:30.836Z,52.67
2019-03-11T12:31:30.833Z,52.87
2019-03-11T12:32:30.844Z,50.90
2019-03-11T12:33:30.817Z,52.15
2019-03-11T12:34:30.792Z,58.87
2019-03-11T12:35:30.785Z,61.77
2019-03-11T12:36:30.783Z,63.66
2019-03-11T12:37:30.769Z,65.94
2019-03-11T12:38:30.749Z,66.77
2019-03-11T12:39:30.738Z,67.00
2019-03-11T12:40:30.730Z,67.42
2019-03-11T12:41:30.750Z,67.03
2019-03-11T12:42:30.712Z,68.49
2019-03-11T12:43:30.858Z,69.04
2019-03-11T12:44:30.683Z,69.59
2019-03-11T12:45:30.686Z,70.73
2019-03-11T12:46:30.675Z,70.21
2019-03-11T12:47:30.662Z,69.38
2019-03-11T12:48:30.639Z,68.76
2019-03-11T12:49:30.623Z,67.72
2019-03-11T12:50:30.619Z,69.00
2019-03-11T12:51:30.623Z,69.31
2019-03-11T12:52:30.592Z,69.65
2019-03-11T12:53:30.607Z,70.79